createdAt,value
2023-05-10T00:00:58.391Z,94562.00
2023-05-10T00:01:58.436Z,94560.00
2023-05-10T00:02:58.399Z,94562.00
2023-05-10T00:03:58.432Z,94558.00
2023-05-10T00:04:58.353Z,94558.00
2023-05-10T00:05:58.352Z,94562.00
2023-05-10T00:06:58.350Z,94564.00
2023-05-10T00:07:58.383Z,94556.00
2023-05-10T00:08:58.449Z,94562.00
2023-05-10T00:09:58.494Z,94556.00
2023-05-10T00:10:58.553Z,94558.00
2023-05-10T00:11:58.607Z,94562.00
2023-05-10T00:12:58.689Z,94564.00
2023-05-10T00:13:58.690Z,94562.00
2023-05-10T00:14:58.721Z,94562.00
2023-05-10T00:15:58.757Z,94566.00
2023-05-10T00:16:58.854Z,94566.00
2023-05-10T00:17:58.895Z,94566.00
2023-05-10T00:18:58.875Z,94564.00
2023-05-10T00:19:58.912Z,94562.00
2023-05-10T00:20:58.957Z,94562.00
2023-05-10T00:21:58.965Z,94568.00
2023-05-10T00:22:58.983Z,94570.00
2023-05-10T00:23:59.042Z,94566.00
2023-05-10T00:24:59.075Z,94570.00
2023-05-10T00:25:59.123Z,94570.00
2023-05-10T00:26:59.161Z,94568.00
2023-05-10T00:27:59.186Z,94566.00
2023-05-10T00:28:59.204Z,94568.00
2023-05-10T00:29:59.228Z,94568.00
2023-05-10T00:30:59.298Z,94572.00
2023-05-10T00:31:59.351Z,94572.00
2023-05-10T00:32:59.390Z,94576.00
2023-05-10T00:33:59.424Z,94574.00
2023-05-10T00:34:59.438Z,94576.00
2023-05-10T00:35:59.475Z,94576.00
2023-05-10T00:36:59.544Z,94572.00
2023-05-10T00:37:59.576Z,94576.00
2023-05-10T00:38:59.658Z,94576.00
2023-05-10T00:39:59.696Z,94574.00
2023-05-10T00:40:59.676Z,94576.00
2023-05-10T00:41:59.674Z,94572.00
2023-05-10T00:42:59.692Z,94572.00
2023-05-10T00:43:59.698Z,94574.00
2023-05-10T00:44:59.751Z,94576.00
2023-05-10T00:45:59.770Z,94572.00
2023-05-10T00:46:59.807Z,94574.00
2023-05-10T00:48:00.308Z,94578.00
2023-05-10T00:48:59.851Z,94574.00
2023-05-10T00:49:59.865Z,94576.00
2023-05-10T00:50:59.887Z,94572.00
2023-05-10T00:51:59.934Z,94574.00
2023-05-10T00:53:00.017Z,94570.00
2023-05-10T00:54:00.019Z,94576.00
2023-05-10T00:55:00.050Z,94576.00
2023-05-10T00:56:00.078Z,94576.00
2023-05-10T00:57:00.082Z,94574.00
2023-05-10T00:58:00.163Z,94574.00
2023-05-10T00:59:00.194Z,94572.00
2023-05-10T01:00:00.254Z,94572.00
2023-05-10T01:01:00.291Z,94574.00
2023-05-10T01:02:00.288Z,94574.00
2023-05-10T01:03:00.425Z,94570.00
2023-05-10T01:04:00.368Z,94572.00
2023-05-10T01:05:00.431Z,94570.00
2023-05-10T01:06:00.436Z,94572.00
2023-05-10T01:07:00.473Z,94572.00
2023-05-10T01:08:00.526Z,94576.00
2023-05-10T01:09:00.563Z,94576.00
2023-05-10T01:10:00.585Z,94574.00
2023-05-10T01:11:00.620Z,94576.00
2023-05-10T01:12:00.681Z,94576.00
2023-05-10T01:13:00.698Z,94580.00
2023-05-10T01:14:00.696Z,94580.00
2023-05-10T01:15:00.742Z,94584.00
2023-05-10T01:16:00.840Z,94582.00
2023-05-10T01:17:00.845Z,94584.00
2023-05-10T01:18:00.874Z,94584.00
2023-05-10T01:19:00.916Z,94582.00
2023-05-10T01:20:00.916Z,94586.00
2023-05-10T01:21:00.909Z,94584.00
2023-05-10T01:22:00.911Z,94586.00
2023-05-10T01:23:00.910Z,94588.00
2023-05-10T01:24:00.916Z,94591.00
2023-05-10T01:25:00.909Z,94588.00
2023-05-10T01:26:00.916Z,94593.00
2023-05-10T01:27:00.898Z,94591.00
2023-05-10T01:28:00.887Z,94595.00
2023-05-10T01:29:00.886Z,94597.00
2023-05-10T01:30:21.776Z,94593.00
2023-05-10T01:31:00.884Z,94597.00
2023-05-10T01:32:00.815Z,94597.00
2023-05-10T01:33:00.810Z,94599.00
2023-05-10T01:34:00.754Z,94595.00
2023-05-10T01:35:00.735Z,94591.00
2023-05-10T01:36:00.687Z,94595.00
2023-05-10T01:37:00.659Z,94595.00
2023-05-10T01:38:00.629Z,94595.00
2023-05-10T01:39:00.616Z,94593.00
2023-05-10T01:40:00.630Z,94593.00
2023-05-10T01:41:00.608Z,94593.00
2023-05-10T01:42:00.611Z,94593.00
2023-05-10T01:43:00.616Z,94597.00
2023-05-10T01:44:00.629Z,94595.00
2023-05-10T01:45:00.648Z,94593.00
2023-05-10T01:46:00.621Z,94595.00
2023-05-10T01:47:00.755Z,94593.00
2023-05-10T01:48:00.647Z,94595.00
2023-05-10T01:49:00.557Z,94595.00
2023-05-10T01:50:00.581Z,94593.00
2023-05-10T01:51:00.554Z,94590.00
2023-05-10T01:52:00.524Z,94590.00
2023-05-10T01:53:00.567Z,94588.00
2023-05-10T01:54:00.566Z,94590.00
2023-05-10T01:55:00.565Z,94590.00
2023-05-10T01:56:00.588Z,94590.00
2023-05-10T01:57:00.567Z,94590.00
2023-05-10T01:58:00.593Z,94591.00
2023-05-10T01:59:00.585Z,94588.00
2023-05-10T02:00:00.611Z,94590.00
2023-05-10T02:01:00.677Z,94588.00
2023-05-10T02:02:00.561Z,94586.00
2023-05-10T02:03:00.607Z,94590.00
2023-05-10T02:04:00.656Z,94588.00
2023-05-10T02:05:00.525Z,94588.00
2023-05-10T02:06:00.548Z,94586.00
2023-05-10T02:07:00.636Z,94584.00
2023-05-10T02:08:00.638Z,94586.00
2023-05-10T02:09:00.682Z,94590.00
2023-05-10T02:10:00.716Z,94590.00
2023-05-10T02:11:00.762Z,94588.00
2023-05-10T02:12:00.818Z,94584.00
2023-05-10T02:13:00.941Z,94584.00
2023-05-10T02:14:00.953Z,94586.00
2023-05-10T02:15:01.017Z,94590.00
2023-05-10T02:16:01.028Z,94588.00
2023-05-10T02:17:01.096Z,94591.00
2023-05-10T02:18:01.275Z,94591.00
2023-05-10T02:19:01.246Z,94591.00
2023-05-10T02:20:01.281Z,94590.00
2023-05-10T02:21:01.341Z,94590.00
2023-05-10T02:22:01.416Z,94590.00
2023-05-10T02:23:01.463Z,94590.00
2023-05-10T02:24:01.518Z,94588.00
2023-05-10T02:25:01.544Z,94591.00
2023-05-10T02:26:01.582Z,94591.00
2023-05-10T02:27:01.581Z,94593.00
2023-05-10T02:28:01.604Z,94591.00
2023-05-10T02:29:01.724Z,94590.00
2023-05-10T02:30:01.785Z,94593.00
2023-05-10T02:31:01.842Z,94595.00
2023-05-10T02:32:01.995Z,94591.00
2023-05-10T02:33:02.023Z,94595.00
2023-05-10T02:34:02.051Z,94593.00
2023-05-10T02:35:02.099Z,94591.00
2023-05-10T02:36:02.178Z,94597.00
2023-05-10T02:37:02.236Z,94593.00
2023-05-10T02:38:02.291Z,94591.00
2023-05-10T02:39:02.393Z,94595.00
2023-05-10T02:40:02.422Z,94595.00
2023-05-10T02:41:02.436Z,94595.00
2023-05-10T02:42:02.493Z,94595.00
2023-05-10T02:43:02.584Z,94597.00
2023-05-10T02:44:02.592Z,94599.00
2023-05-10T02:45:02.663Z,94595.00
2023-05-10T02:46:02.771Z,94601.00
2023-05-10T02:47:02.781Z,94601.00
2023-05-10T02:48:02.852Z,94599.00
2023-05-10T02:49:02.880Z,94603.00
2023-05-10T02:50:02.912Z,94603.00
2023-05-10T02:51:02.984Z,94601.00
2023-05-10T02:52:03.068Z,94601.00
2023-05-10T02:53:03.172Z,94603.00
2023-05-10T02:54:03.228Z,94603.00
2023-05-10T02:55:03.337Z,94605.00
2023-05-10T02:56:03.348Z,94607.00
2023-05-10T02:57:03.381Z,94605.00
2023-05-10T02:58:03.435Z,94607.00
2023-05-10T02:59:03.431Z,94607.00
2023-05-10T03:00:03.476Z,94609.00
2023-05-10T03:01:03.557Z,94609.00
2023-05-10T03:02:03.580Z,94609.00
2023-05-10T03:03:03.649Z,94613.00
2023-05-10T03:04:03.602Z,94613.00
2023-05-10T03:05:03.741Z,94613.00
2023-05-10T03:06:03.640Z,94615.00
2023-05-10T03:07:03.679Z,94617.00
2023-05-10T03:08:03.695Z,94617.00
2023-05-10T03:09:03.714Z,94615.00
2023-05-10T03:10:03.754Z,94615.00
2023-05-10T03:11:03.790Z,94619.00
2023-05-10T03:12:03.830Z,94619.00
2023-05-10T03:13:03.895Z,94617.00
2023-05-10T03:14:03.942Z,94617.00
2023-05-10T03:15:04.030Z,94615.00
2023-05-10T03:16:04.065Z,94617.00
2023-05-10T03:17:04.076Z,94617.00
2023-05-10T03:18:04.167Z,94615.00
2023-05-10T03:19:04.178Z,94613.00
2023-05-10T03:20:04.194Z,94615.00
2023-05-10T03:21:04.237Z,94611.00
2023-05-10T03:22:04.276Z,94611.00
2023-05-10T03:23:04.338Z,94609.00
2023-05-10T03:24:04.415Z,94609.00
2023-05-10T03:25:04.428Z,94609.00
2023-05-10T03:26:04.471Z,94611.00
2023-05-10T03:27:04.556Z,94611.00
2023-05-10T03:28:04.535Z,94613.00
2023-05-10T03:29:04.597Z,94613.00
2023-05-10T03:30:04.560Z,94617.00
2023-05-10T03:31:04.623Z,94617.00
2023-05-10T03:32:04.574Z,94615.00
2023-05-10T03:33:04.654Z,94617.00
2023-05-10T03:34:04.735Z,94621.00
2023-05-10T03:35:04.698Z,94617.00
2023-05-10T03:36:04.747Z,94619.00
2023-05-10T03:37:04.800Z,94617.00
2023-05-10T03:38:04.834Z,94619.00
2023-05-10T03:39:04.942Z,94621.00
2023-05-10T03:40:05.006Z,94623.00
2023-05-10T03:41:05.006Z,94621.00
2023-05-10T03:42:05.040Z,94621.00
2023-05-10T03:43:05.076Z,94623.00
2023-05-10T03:44:05.121Z,94623.00
2023-05-10T03:45:05.129Z,94623.00
2023-05-10T03:46:05.185Z,94623.00
2023-05-10T03:47:05.258Z,94629.00
2023-05-10T03:48:05.310Z,94625.00
2023-05-10T03:49:05.340Z,94627.00
2023-05-10T03:50:05.290Z,94627.00
2023-05-10T03:51:05.304Z,94629.00
2023-05-10T03:52:05.318Z,94627.00
2023-05-10T03:53:05.325Z,94627.00
2023-05-10T03:54:05.337Z,94631.00
2023-05-10T03:55:05.336Z,94631.00
2023-05-10T03:56:05.352Z,94631.00
2023-05-10T03:57:05.360Z,94635.00
2023-05-10T03:58:05.364Z,94633.00
2023-05-10T03:59:05.440Z,94633.00
2023-05-10T04:00:05.462Z,94633.00
2023-05-10T04:01:05.525Z,94631.00
2023-05-10T04:02:05.606Z,94635.00
2023-05-10T04:03:05.654Z,94631.00
2023-05-10T04:04:05.702Z,94631.00
2023-05-10T04:05:05.745Z,94631.00
2023-05-10T04:06:05.817Z,94635.00
2023-05-10T04:07:05.804Z,94635.00
2023-05-10T04:08:05.865Z,94633.00
2023-05-10T04:09:05.945Z,94633.00
2023-05-10T04:10:05.954Z,94635.00
2023-05-10T04:11:05.997Z,94635.00
2023-05-10T04:12:06.499Z,94637.00
2023-05-10T04:13:06.111Z,94635.00
2023-05-10T04:14:06.128Z,94637.00
2023-05-10T04:15:06.160Z,94644.00
2023-05-10T04:16:06.192Z,94644.00
2023-05-10T04:17:06.330Z,94644.00
2023-05-10T04:18:08.718Z,94644.00
2023-05-10T04:19:06.287Z,94648.00
2023-05-10T04:20:06.186Z,94652.00
2023-05-10T04:21:06.166Z,94648.00
2023-05-10T04:22:06.144Z,94652.00
2023-05-10T04:23:06.140Z,94652.00
2023-05-10T04:24:06.118Z,94650.00
2023-05-10T04:25:06.076Z,94654.00
2023-05-10T04:26:06.047Z,94652.00
2023-05-10T04:27:06.019Z,94656.00
2023-05-10T04:28:05.999Z,94654.00
2023-05-10T04:29:06.017Z,94658.00
2023-05-10T04:30:05.956Z,94658.00
2023-05-10T04:31:06.054Z,94658.00
2023-05-10T04:32:05.903Z,94660.00
2023-05-10T04:33:05.943Z,94660.00
2023-05-10T04:34:05.892Z,94658.00
2023-05-10T04:35:05.836Z,94658.00
2023-05-10T04:36:05.833Z,94664.00
2023-05-10T04:37:05.789Z,94664.00
2023-05-10T04:38:05.755Z,94664.00
2023-05-10T04:39:05.802Z,94664.00
2023-05-10T04:40:05.721Z,94662.00
2023-05-10T04:41:05.714Z,94662.00
2023-05-10T04:42:05.696Z,94664.00
2023-05-10T04:43:05.687Z,94664.00
2023-05-10T04:44:05.699Z,94666.00
2023-05-10T04:45:05.658Z,94664.00
2023-05-10T04:46:05.734Z,94666.00
2023-05-10T04:47:05.691Z,94664.00
2023-05-10T04:48:05.715Z,94664.00
2023-05-10T04:49:05.732Z,94664.00
2023-05-10T04:50:05.804Z,94668.00
2023-05-10T04:51:05.855Z,94666.00
2023-05-10T04:52:05.852Z,94666.00
2023-05-10T04:53:05.898Z,94666.00
2023-05-10T04:54:06.936Z,94664.00
2023-05-10T04:55:05.971Z,94664.00
2023-05-10T04:56:06.001Z,94664.00
2023-05-10T04:57:06.039Z,94664.00
2023-05-10T04:58:06.081Z,94666.00
2023-05-10T04:59:06.127Z,94666.00
2023-05-10T05:00:06.181Z,94666.00
2023-05-10T05:01:06.208Z,94666.00
2023-05-10T05:02:06.320Z,94666.00
2023-05-10T05:03:06.448Z,94670.00
2023-05-10T05:04:06.367Z,94668.00
2023-05-10T05:05:06.432Z,94670.00
2023-05-10T05:06:06.436Z,94672.00
2023-05-10T05:07:06.464Z,94674.00
2023-05-10T05:08:06.504Z,94672.00
2023-05-10T05:09:06.554Z,94676.00
2023-05-10T05:10:06.554Z,94678.00
2023-05-10T05:11:06.571Z,94678.00
2023-05-10T05:12:06.634Z,94678.00
2023-05-10T05:13:06.768Z,94680.00
2023-05-10T05:14:06.731Z,94680.00
2023-05-10T05:15:09.055Z,94680.00
2023-05-10T05:16:06.769Z,94680.00
2023-05-10T05:17:06.660Z,94682.00
2023-05-10T05:18:06.691Z,94680.00
2023-05-10T05:19:06.832Z,94682.00
2023-05-10T05:20:06.623Z,94680.00
2023-05-10T05:21:06.778Z,94680.00
2023-05-10T05:22:06.552Z,94680.00
2023-05-10T05:23:06.545Z,94680.00
2023-05-10T05:24:06.528Z,94680.00
2023-05-10T05:25:06.465Z,94682.00
2023-05-10T05:26:06.782Z,94680.00
2023-05-10T05:27:06.410Z,94678.00
2023-05-10T05:28:06.383Z,94682.00
2023-05-10T05:29:06.357Z,94678.00
2023-05-10T05:30:06.367Z,94678.00
2023-05-10T05:31:06.350Z,94682.00
2023-05-10T05:32:06.380Z,94680.00
2023-05-10T05:33:06.352Z,94683.00
2023-05-10T05:34:06.242Z,94682.00
2023-05-10T05:35:06.311Z,94682.00
2023-05-10T05:36:06.184Z,94683.00
2023-05-10T05:37:06.168Z,94683.00
2023-05-10T05:38:06.178Z,94683.00
2023-05-10T05:39:06.111Z,94685.00
2023-05-10T05:40:06.299Z,94689.00
2023-05-10T05:41:06.057Z,94691.00
2023-05-10T05:42:06.054Z,94691.00
2023-05-10T05:43:06.054Z,94689.00
2023-05-10T05:44:06.062Z,94689.00
2023-05-10T05:45:06.283Z,94691.00
2023-05-10T05:46:06.186Z,94691.00
2023-05-10T05:47:06.163Z,94691.00
2023-05-10T05:48:06.266Z,94689.00
2023-05-10T05:49:06.217Z,94693.00
2023-05-10T05:50:06.297Z,94695.00
2023-05-10T05:51:07.394Z,94693.00
2023-05-10T05:52:07.289Z,94697.00
2023-05-10T05:53:06.253Z,94695.00
2023-05-10T05:54:06.557Z,94697.00
2023-05-10T05:55:06.334Z,94697.00
2023-05-10T05:56:06.269Z,94697.00
2023-05-10T05:57:06.284Z,94699.00
2023-05-10T05:58:06.789Z,94699.00
2023-05-10T05:59:06.327Z,94703.00
2023-05-10T06:00:06.789Z,94701.00
2023-05-10T06:01:06.375Z,94701.00
2023-05-10T06:02:09.634Z,94699.00
2023-05-10T06:03:06.470Z,94701.00
2023-05-10T06:04:09.610Z,94697.00
2023-05-10T06:05:06.797Z,94699.00
2023-05-10T06:06:06.328Z,94699.00
2023-05-10T06:07:06.345Z,94699.00
2023-05-10T06:08:06.268Z,94699.00
2023-05-10T06:09:13.662Z,94697.00
2023-05-10T06:10:06.188Z,94697.00
2023-05-10T06:11:06.166Z,94695.00
2023-05-10T06:12:06.325Z,94697.00
2023-05-10T06:13:06.146Z,94701.00
2023-05-10T06:14:06.069Z,94699.00
2023-05-10T06:15:06.307Z,94701.00
2023-05-10T06:16:06.013Z,94701.00
2023-05-10T06:17:06.053Z,94701.00
2023-05-10T06:18:06.130Z,94701.00
2023-05-10T06:19:05.933Z,94703.00
2023-05-10T06:20:06.306Z,94701.00
2023-05-10T06:21:05.848Z,94701.00
2023-05-10T06:22:05.807Z,94703.00
2023-05-10T06:23:05.808Z,94705.00
2023-05-10T06:24:05.771Z,94705.00
2023-05-10T06:25:05.795Z,94705.00
2023-05-10T06:26:05.687Z,94707.00
2023-05-10T06:27:05.662Z,94711.00
2023-05-10T06:28:05.629Z,94709.00
2023-05-10T06:29:05.590Z,94711.00
2023-05-10T06:30:12.791Z,94709.00
2023-05-10T06:31:08.743Z,94713.00
2023-05-10T06:32:05.488Z,94707.00
2023-05-10T06:33:05.507Z,94709.00
2023-05-10T06:34:05.423Z,94709.00
2023-05-10T06:35:05.808Z,94709.00
2023-05-10T06:36:05.358Z,94713.00
2023-05-10T06:37:05.311Z,94711.00
2023-05-10T06:38:05.272Z,94711.00
2023-05-10T06:39:05.559Z,94711.00
2023-05-10T06:40:06.204Z,94711.00
2023-05-10T06:41:05.171Z,94709.00
2023-05-10T06:42:05.157Z,94711.00
2023-05-10T06:43:05.090Z,94709.00
2023-05-10T06:44:05.297Z,94711.00
2023-05-10T06:45:05.305Z,94711.00
2023-05-10T06:46:04.993Z,94711.00
2023-05-10T06:47:04.984Z,94711.00
2023-05-10T06:48:04.988Z,94713.00
2023-05-10T06:49:05.367Z,94711.00
2023-05-10T06:50:05.368Z,94713.00
2023-05-10T06:51:04.800Z,94711.00
2023-05-10T06:52:04.801Z,94711.00
2023-05-10T06:53:04.742Z,94715.00
2023-05-10T06:54:04.713Z,94713.00
2023-05-10T06:55:04.830Z,94711.00
2023-05-10T06:56:07.851Z,94711.00
2023-05-10T06:57:08.811Z,94713.00
2023-05-10T06:58:04.574Z,94717.00
2023-05-10T06:59:07.909Z,94715.00
2023-05-10T07:00:04.826Z,94713.00
2023-05-10T07:01:04.523Z,94715.00
2023-05-10T07:02:04.530Z,94717.00
2023-05-10T07:03:04.505Z,94713.00
2023-05-10T07:04:04.817Z,94713.00
2023-05-10T07:05:04.812Z,94713.00
2023-05-10T07:06:04.343Z,94713.00
2023-05-10T07:07:04.316Z,94713.00
2023-05-10T07:08:04.255Z,94711.00
2023-05-10T07:09:04.337Z,94713.00
2023-05-10T07:10:04.328Z,94713.00
2023-05-10T07:11:04.290Z,94715.00
2023-05-10T07:12:04.190Z,94717.00
2023-05-10T07:13:04.147Z,94721.00
2023-05-10T07:14:04.064Z,94721.00
2023-05-10T07:15:04.032Z,94723.00
2023-05-10T07:16:04.019Z,94725.00
2023-05-10T07:17:04.366Z,94727.00
2023-05-10T07:18:04.026Z,94729.00
2023-05-10T07:19:03.884Z,94721.00
2023-05-10T07:20:03.855Z,94725.00
2023-05-10T07:21:03.813Z,94723.00
2023-05-10T07:22:03.760Z,94725.00
2023-05-10T07:23:03.743Z,94727.00
2023-05-10T07:24:03.696Z,94729.00
2023-05-10T07:25:03.690Z,94727.00
2023-05-10T07:26:03.645Z,94732.00
2023-05-10T07:27:03.842Z,94730.00
2023-05-10T07:28:03.570Z,94732.00
2023-05-10T07:29:03.814Z,94732.00
2023-05-10T07:30:03.598Z,94732.00
2023-05-10T07:31:03.549Z,94734.00
2023-05-10T07:32:03.833Z,94734.00
2023-05-10T07:33:03.446Z,94738.00
2023-05-10T07:34:03.377Z,94730.00
2023-05-10T07:35:04.378Z,94732.00
2023-05-10T07:36:03.290Z,94732.00
2023-05-10T07:37:03.317Z,94734.00
2023-05-10T07:38:03.253Z,94736.00
2023-05-10T07:39:03.173Z,94738.00
2023-05-10T07:40:03.312Z,94736.00
2023-05-10T07:41:03.210Z,94738.00
2023-05-10T07:42:03.089Z,94740.00
2023-05-10T07:43:03.168Z,94740.00
2023-05-10T07:44:06.439Z,94742.00
2023-05-10T07:45:03.360Z,94744.00
2023-05-10T07:46:07.395Z,94744.00
2023-05-10T07:47:03.098Z,94744.00
2023-05-10T07:48:03.059Z,94744.00
2023-05-10T07:49:03.040Z,94738.00
2023-05-10T07:50:03.369Z,94740.00
2023-05-10T07:51:03.101Z,94744.00
2023-05-10T07:52:03.280Z,94744.00
2023-05-10T07:53:03.248Z,94744.00
2023-05-10T07:54:06.251Z,94748.00
2023-05-10T07:55:03.336Z,94748.00
2023-05-10T07:56:02.974Z,94748.00
2023-05-10T07:57:03.001Z,94748.00
2023-05-10T07:58:02.936Z,94744.00
2023-05-10T07:59:02.929Z,94742.00
2023-05-10T08:00:03.324Z,94746.00
2023-05-10T08:01:02.791Z,94744.00
2023-05-10T08:02:02.781Z,94742.00
2023-05-10T08:03:02.862Z,94744.00
2023-05-10T08:04:02.934Z,94742.00
2023-05-10T08:05:02.826Z,94742.00
2023-05-10T08:06:02.610Z,94742.00
2023-05-10T08:07:02.831Z,94746.00
2023-05-10T08:08:02.514Z,94748.00
2023-05-10T08:09:02.486Z,94746.00
2023-05-10T08:10:02.830Z,94746.00
2023-05-10T08:11:02.405Z,94748.00
2023-05-10T08:12:02.366Z,94748.00
2023-05-10T08:13:02.328Z,94748.00
2023-05-10T08:14:02.321Z,94748.00
2023-05-10T08:15:02.284Z,94748.00
2023-05-10T08:16:02.241Z,94748.00
2023-05-10T08:17:02.212Z,94748.00
2023-05-10T08:18:02.154Z,94750.00
2023-05-10T08:19:02.131Z,94752.00
2023-05-10T08:20:02.407Z,94750.00
2023-05-10T08:21:01.990Z,94752.00
2023-05-10T08:22:01.968Z,94756.00
2023-05-10T08:23:01.904Z,94754.00
2023-05-10T08:24:01.855Z,94756.00
2023-05-10T08:25:02.342Z,94756.00
2023-05-10T08:26:03.437Z,94760.00
2023-05-10T08:27:01.974Z,94758.00
2023-05-10T08:28:02.003Z,94758.00
2023-05-10T08:29:01.973Z,94760.00
2023-05-10T08:30:02.332Z,94762.00
2023-05-10T08:31:02.057Z,94766.00
2023-05-10T08:32:01.951Z,94770.00
2023-05-10T08:33:01.985Z,94774.00
2023-05-10T08:34:01.893Z,94772.00
2023-05-10T08:35:02.340Z,94770.00
2023-05-10T08:36:01.856Z,94770.00
2023-05-10T08:37:01.812Z,94766.00
2023-05-10T08:38:01.807Z,94770.00
2023-05-10T08:39:01.792Z,94770.00
2023-05-10T08:40:02.878Z,94770.00
2023-05-10T08:41:01.650Z,94768.00
2023-05-10T08:42:01.833Z,94768.00
2023-05-10T08:43:01.588Z,94772.00
2023-05-10T08:44:01.563Z,94774.00
2023-05-10T08:45:05.425Z,94772.00
2023-05-10T08:46:01.505Z,94774.00
2023-05-10T08:47:01.621Z,94772.00
2023-05-10T08:48:01.484Z,94772.00
2023-05-10T08:49:01.374Z,94776.00
2023-05-10T08:50:01.875Z,94772.00
2023-05-10T08:51:01.350Z,94772.00
2023-05-10T08:52:01.301Z,94774.00
2023-05-10T08:53:01.289Z,94776.00
2023-05-10T08:54:01.258Z,94778.00
2023-05-10T08:55:01.339Z,94784.00
2023-05-10T08:56:01.254Z,94785.00
2023-05-10T08:57:01.227Z,94784.00
2023-05-10T08:58:01.240Z,94785.00
2023-05-10T08:59:01.347Z,94785.00
2023-05-10T09:00:01.857Z,94787.00
2023-05-10T09:01:01.419Z,94789.00
2023-05-10T09:02:01.348Z,94787.00
2023-05-10T09:03:01.461Z,94789.00
2023-05-10T09:04:01.462Z,94787.00
2023-05-10T09:05:01.610Z,94791.00
2023-05-10T09:06:01.446Z,94791.00
2023-05-10T09:07:04.677Z,94789.00
2023-05-10T09:08:01.482Z,94791.00
2023-05-10T09:09:01.441Z,94791.00
2023-05-10T09:10:01.448Z,94791.00
2023-05-10T09:11:01.413Z,94793.00
2023-05-10T09:12:01.407Z,94791.00
2023-05-10T09:13:01.404Z,94791.00
2023-05-10T09:14:01.389Z,94791.00
2023-05-10T09:15:01.885Z,94791.00
2023-05-10T09:16:09.855Z,94793.00
2023-05-10T09:17:01.458Z,94793.00
2023-05-10T09:18:01.400Z,94793.00
2023-05-10T09:19:01.425Z,94795.00
2023-05-10T09:20:02.688Z,94795.00
2023-05-10T09:21:01.887Z,94795.00
2023-05-10T09:22:01.654Z,94797.00
2023-05-10T09:23:01.648Z,94791.00
2023-05-10T09:24:01.716Z,94795.00
2023-05-10T09:25:01.763Z,94797.00
2023-05-10T09:26:01.848Z,94797.00
2023-05-10T09:27:01.828Z,94797.00
2023-05-10T09:28:01.900Z,94801.00
2023-05-10T09:29:01.955Z,94799.00
2023-05-10T09:30:02.353Z,94799.00
2023-05-10T09:31:02.070Z,94801.00
2023-05-10T09:32:02.073Z,94801.00
2023-05-10T09:33:02.129Z,94801.00
2023-05-10T09:34:02.135Z,94803.00
2023-05-10T09:35:02.391Z,94801.00
2023-05-10T09:36:02.356Z,94799.00
2023-05-10T09:37:02.281Z,94801.00
2023-05-10T09:38:02.325Z,94797.00
2023-05-10T09:39:02.858Z,94795.00
2023-05-10T09:40:02.442Z,94801.00
2023-05-10T09:41:02.428Z,94797.00
2023-05-10T09:42:02.451Z,94799.00
2023-05-10T09:43:02.485Z,94799.00
2023-05-10T09:44:02.864Z,94799.00
2023-05-10T09:45:02.549Z,94797.00
2023-05-10T09:46:02.645Z,94795.00
2023-05-10T09:47:02.629Z,94791.00
2023-05-10T09:48:02.718Z,94795.00
2023-05-10T09:49:02.726Z,94795.00
2023-05-10T09:50:02.860Z,94795.00
2023-05-10T09:51:02.774Z,94793.00
2023-05-10T09:52:02.782Z,94791.00
2023-05-10T09:53:02.825Z,94795.00
2023-05-10T09:54:03.376Z,94795.00
2023-05-10T09:55:02.957Z,94793.00
2023-05-10T09:56:02.976Z,94795.00
2023-05-10T09:57:03.357Z,94797.00
2023-05-10T09:58:04.009Z,94797.00
2023-05-10T09:59:06.204Z,94797.00
2023-05-10T10:00:03.006Z,94797.00
2023-05-10T10:01:03.408Z,94799.00
2023-05-10T10:02:03.080Z,94793.00
2023-05-10T10:03:03.060Z,94795.00
2023-05-10T10:04:03.004Z,94793.00
2023-05-10T10:05:03.031Z,94793.00
2023-05-10T10:06:03.367Z,94795.00
2023-05-10T10:07:03.053Z,94793.00
2023-05-10T10:08:03.393Z,94793.00
2023-05-10T10:09:03.047Z,94791.00
2023-05-10T10:10:03.361Z,94791.00
2023-05-10T10:11:03.360Z,94795.00
2023-05-10T10:12:03.084Z,94797.00
2023-05-10T10:13:03.118Z,94789.00
2023-05-10T10:14:03.132Z,94795.00
2023-05-10T10:15:03.162Z,94795.00
2023-05-10T10:16:03.408Z,94793.00
2023-05-10T10:18:02.328Z,94793.00
2023-05-10T10:19:03.330Z,94793.00
2023-05-10T10:20:03.311Z,94793.00
2023-05-10T10:21:03.378Z,94793.00
2023-05-10T10:22:03.316Z,94797.00
2023-05-10T10:23:03.358Z,94797.00
2023-05-10T10:24:03.350Z,94797.00
2023-05-10T10:25:03.357Z,94797.00
2023-05-10T10:26:03.868Z,94797.00
2023-05-10T10:27:03.385Z,94801.00
2023-05-10T10:28:03.413Z,94803.00
2023-05-10T10:29:03.413Z,94801.00
2023-05-10T10:30:03.391Z,94801.00
2023-05-10T10:31:03.899Z,94803.00
2023-05-10T10:32:03.397Z,94805.00
2023-05-10T10:33:10.224Z,94803.00
2023-05-10T10:34:03.414Z,94803.00
2023-05-10T10:35:03.414Z,94805.00
2023-05-10T10:36:03.865Z,94805.00
2023-05-10T10:37:03.411Z,94805.00
2023-05-10T10:38:03.410Z,94803.00
2023-05-10T10:39:03.448Z,94801.00
2023-05-10T10:40:03.423Z,94799.00
2023-05-10T10:41:03.884Z,94805.00
2023-05-10T10:42:03.430Z,94801.00
2023-05-10T10:43:03.457Z,94803.00
2023-05-10T10:44:03.477Z,94799.00
2023-05-10T10:45:03.490Z,94795.00
2023-05-10T10:46:03.538Z,94799.00
2023-05-10T10:47:03.613Z,94803.00
2023-05-10T10:48:03.613Z,94801.00
2023-05-10T10:49:03.591Z,94801.00
2023-05-10T10:50:03.657Z,94799.00
2023-05-10T10:51:05.321Z,94803.00
2023-05-10T10:52:03.653Z,94799.00
2023-05-10T10:53:03.665Z,94797.00
2023-05-10T10:54:03.734Z,94797.00
2023-05-10T10:55:03.786Z,94799.00
2023-05-10T10:56:03.691Z,94797.00
2023-05-10T10:57:03.700Z,94795.00
2023-05-10T10:58:03.882Z,94797.00
2023-05-10T10:59:03.736Z,94799.00
2023-05-10T11:00:03.805Z,94797.00
2023-05-10T11:01:03.792Z,94797.00
2023-05-10T11:02:04.673Z,94795.00
2023-05-10T11:03:04.037Z,94793.00
2023-05-10T11:04:03.950Z,94789.00
2023-05-10T11:05:04.377Z,94789.00
2023-05-10T11:06:03.898Z,94791.00
2023-05-10T11:07:03.910Z,94791.00
2023-05-10T11:08:03.913Z,94789.00
2023-05-10T11:09:03.935Z,94784.00
2023-05-10T11:10:04.377Z,94785.00
2023-05-10T11:11:03.976Z,94785.00
2023-05-10T11:12:03.960Z,94782.00
2023-05-10T11:13:03.955Z,94782.00
2023-05-10T11:14:03.957Z,94782.00
2023-05-10T11:15:03.957Z,94784.00
2023-05-10T11:16:04.398Z,94780.00
2023-05-10T11:17:04.024Z,94782.00
2023-05-10T11:18:04.029Z,94782.00
2023-05-10T11:19:07.310Z,94782.00
2023-05-10T11:20:03.976Z,94782.00
2023-05-10T11:21:04.006Z,94780.00
2023-05-10T11:22:04.772Z,94780.00
2023-05-10T11:23:04.047Z,94782.00
2023-05-10T11:24:04.072Z,94782.00
2023-05-10T11:25:04.113Z,94780.00
2023-05-10T11:26:05.112Z,94780.00
2023-05-10T11:27:04.153Z,94780.00
2023-05-10T11:28:04.365Z,94784.00
2023-05-10T11:29:04.153Z,94780.00
2023-05-10T11:30:05.040Z,94778.00
2023-05-10T11:31:04.245Z,94780.00
2023-05-10T11:32:04.159Z,94778.00
2023-05-10T11:33:04.203Z,94780.00
2023-05-10T11:34:04.192Z,94776.00
2023-05-10T11:35:04.197Z,94776.00
2023-05-10T11:36:04.215Z,94778.00
2023-05-10T11:37:04.244Z,94772.00
2023-05-10T11:38:04.302Z,94774.00
2023-05-10T11:39:04.331Z,94772.00
2023-05-10T11:40:04.405Z,94774.00
2023-05-10T11:41:04.549Z,94772.00
2023-05-10T11:42:04.534Z,94776.00
2023-05-10T11:43:04.596Z,94774.00
2023-05-10T11:44:04.630Z,94774.00
2023-05-10T11:45:04.700Z,94776.00
2023-05-10T11:46:04.831Z,94774.00